Hoeven/Seppe, Netherlands
Current Conditions -  °F | °C
As of 10:55 PM on Thursday 27 Nov 2014 (Local Time) from EHWO Reporting Station
Haze Haze  
Wind Chill: 44°   Ceiling: 500
Heat Index: 46°   Visibility: 2.4mi
Dew Point: 46°   Wind: 6mph
Humidity: 100%   Direction: 90°E
Pressure: 29.68"   Gusts: NA
Location:  51.55°N, 4.55°E
Report Text: EHWO 272155Z AUTO 09005KT 3900 BR SCT003 BKN005 BKN008 08/08 Q1005 YLO
Loading
Personal Weather Stations






























Interactive Weather Map New forecast layout! Learn more

10-Day Weather Forecast

Advertisements
Track Severe Weather on mobile